createdAt,value
2018-12-29T00:00:12.455Z,55.78
2018-12-29T00:00:38.047Z,55.68
2018-12-29T00:01:03.658Z,55.68
2018-12-29T00:01:29.255Z,55.68
2018-12-29T00:01:54.846Z,55.78
2018-12-29T00:02:20.414Z,55.68
2018-12-29T00:02:46.011Z,55.78
2018-12-29T00:03:11.598Z,55.68
2018-12-29T00:03:37.173Z,55.78
2018-12-29T00:04:02.741Z,55.68
2018-12-29T00:04:28.321Z,55.68
2018-12-29T00:04:53.889Z,55.98
2018-12-29T00:05:19.475Z,55.78
2018-12-29T00:05:45.065Z,55.68
2018-12-29T00:06:10.625Z,55.68
2018-12-29T00:06:36.204Z,55.78
2018-12-29T00:07:01.788Z,55.68
2018-12-29T00:07:27.353Z,55.59
2018-12-29T00:07:52.925Z,55.68
2018-12-29T00:08:18.511Z,55.78
2018-12-29T00:08:44.099Z,55.68
2018-12-29T00:09:09.681Z,55.78
2018-12-29T00:09:35.273Z,55.88
2018-12-29T00:10:00.888Z,55.78
2018-12-29T00:10:26.465Z,55.59
2018-12-29T00:10:52.051Z,55.68
2018-12-29T00:11:17.623Z,55.88
2018-12-29T00:11:43.211Z,55.88
2018-12-29T00:12:08.797Z,55.68
2018-12-29T00:12:34.367Z,55.68
2018-12-29T00:12:59.946Z,55.78
2018-12-29T00:13:25.527Z,55.88
2018-12-29T00:13:51.113Z,55.68
2018-12-29T00:14:16.677Z,55.78
2018-12-29T00:14:42.261Z,55.88
2018-12-29T00:15:07.837Z,55.68
2018-12-29T00:15:33.393Z,55.78
2018-12-29T00:15:58.981Z,55.68
2018-12-29T00:16:24.567Z,55.78
2018-12-29T00:16:50.162Z,55.88
2018-12-29T00:17:15.726Z,55.68
2018-12-29T00:17:41.310Z,55.68
2018-12-29T00:18:06.885Z,55.78
2018-12-29T00:18:32.473Z,55.68
2018-12-29T00:18:58.048Z,55.68
2018-12-29T00:19:23.630Z,55.68
2018-12-29T00:19:49.226Z,55.68
2018-12-29T00:20:14.818Z,55.78
2018-12-29T00:20:40.392Z,55.98
2018-12-29T00:21:05.974Z,55.78
2018-12-29T00:21:31.568Z,55.88
2018-12-29T00:21:57.154Z,55.88
2018-12-29T00:22:22.731Z,55.68
2018-12-29T00:22:48.316Z,55.68
2018-12-29T00:23:13.869Z,55.68
2018-12-29T00:23:39.444Z,55.88
2018-12-29T00:24:05.048Z,55.68
2018-12-29T00:24:30.627Z,55.78
2018-12-29T00:24:56.244Z,55.68
2018-12-29T00:25:21.833Z,55.78
2018-12-29T00:25:47.415Z,55.78
2018-12-29T00:26:12.991Z,55.78
2018-12-29T00:26:38.569Z,55.78
2018-12-29T00:27:04.127Z,55.68
2018-12-29T00:27:29.720Z,55.78
2018-12-29T00:27:55.315Z,55.68
2018-12-29T00:28:20.910Z,55.78
2018-12-29T00:28:46.485Z,55.78
2018-12-29T00:29:12.065Z,55.88
2018-12-29T00:29:37.641Z,55.78
2018-12-29T00:30:03.211Z,55.88
2018-12-29T00:30:28.783Z,55.88
2018-12-29T00:30:54.347Z,55.68
2018-12-29T00:31:19.906Z,55.88
2018-12-29T00:31:45.487Z,55.78
2018-12-29T00:32:11.061Z,55.78
2018-12-29T00:32:36.643Z,55.68
2018-12-29T00:33:02.220Z,55.78
2018-12-29T00:33:27.789Z,55.68
2018-12-29T00:33:53.361Z,55.59
2018-12-29T00:34:18.954Z,55.98
2018-12-29T00:34:44.503Z,55.88
2018-12-29T00:35:10.065Z,55.78
2018-12-29T00:35:35.645Z,55.78
2018-12-29T00:36:01.227Z,55.78
2018-12-29T00:36:26.798Z,55.78
2018-12-29T00:36:52.390Z,55.78
2018-12-29T00:37:17.974Z,55.78
2018-12-29T00:37:43.537Z,55.88
2018-12-29T00:38:09.104Z,55.68
2018-12-29T00:38:34.656Z,55.68
2018-12-29T00:39:00.230Z,55.78
2018-12-29T00:39:25.820Z,55.68
2018-12-29T00:39:51.379Z,55.68
2018-12-29T00:40:16.941Z,55.68
2018-12-29T00:40:42.534Z,55.78
2018-12-29T00:41:08.097Z,55.78
2018-12-29T00:41:33.666Z,55.68
2018-12-29T00:41:59.237Z,55.78
2018-12-29T00:42:24.842Z,55.59
2018-12-29T00:42:50.426Z,55.59
2018-12-29T00:43:16.005Z,55.78
2018-12-29T00:43:41.576Z,55.78
2018-12-29T00:44:07.165Z,55.78
2018-12-29T00:44:32.738Z,55.78
2018-12-29T00:45:02.348Z,55.78
2018-12-29T00:45:23.919Z,55.59
2018-12-29T00:45:49.487Z,55.78
2018-12-29T00:46:15.062Z,55.78
2018-12-29T00:46:40.634Z,55.78
2018-12-29T00:47:06.223Z,55.78
2018-12-29T00:47:31.795Z,55.78
2018-12-29T00:47:57.347Z,55.78
2018-12-29T00:48:22.921Z,55.78
2018-12-29T00:48:48.539Z,55.78
2018-12-29T00:49:14.111Z,55.78
2018-12-29T00:49:39.688Z,55.78
2018-12-29T00:50:05.279Z,55.68
2018-12-29T00:50:30.845Z,55.78
2018-12-29T00:50:56.431Z,55.78
2018-12-29T00:51:22.024Z,55.78
2018-12-29T00:51:47.597Z,55.88
2018-12-29T00:52:13.177Z,55.78
2018-12-29T00:52:38.781Z,55.68
2018-12-29T00:53:04.350Z,55.68
2018-12-29T00:53:29.933Z,55.68
2018-12-29T00:53:55.508Z,55.78
2018-12-29T00:54:21.091Z,55.78
2018-12-29T00:54:46.655Z,55.78
2018-12-29T00:55:12.227Z,55.68
2018-12-29T00:55:37.803Z,55.78
2018-12-29T00:56:03.373Z,55.78
2018-12-29T00:56:28.965Z,55.88
2018-12-29T00:56:54.537Z,55.78
2018-12-29T00:57:20.107Z,55.88
2018-12-29T00:57:45.702Z,55.78
2018-12-29T00:58:11.272Z,55.88
2018-12-29T00:58:36.852Z,55.78
2018-12-29T00:59:02.429Z,55.78
2018-12-29T00:59:28.021Z,55.78
2018-12-29T00:59:53.919Z,55.78
2018-12-29T01:00:19.183Z,55.78
2018-12-29T01:00:44.758Z,55.78
2018-12-29T01:01:10.334Z,55.78
2018-12-29T01:01:35.920Z,55.78
2018-12-29T01:02:01.514Z,55.78
2018-12-29T01:02:27.093Z,55.78
2018-12-29T01:02:52.663Z,55.78
2018-12-29T01:03:18.258Z,55.78
2018-12-29T01:03:43.837Z,55.59
2018-12-29T01:04:09.421Z,55.78
2018-12-29T01:04:35.019Z,55.78
2018-12-29T01:05:00.600Z,55.68
2018-12-29T01:05:26.167Z,55.78
2018-12-29T01:05:51.741Z,55.78
2018-12-29T01:06:17.329Z,55.78
2018-12-29T01:06:42.906Z,55.78
2018-12-29T01:07:08.485Z,55.78
2018-12-29T01:07:34.061Z,55.78
2018-12-29T01:07:59.638Z,55.68
2018-12-29T01:08:25.211Z,55.68
2018-12-29T01:08:50.794Z,55.78
2018-12-29T01:09:16.377Z,55.78
2018-12-29T01:09:41.951Z,55.68
2018-12-29T01:10:07.536Z,55.68
2018-12-29T01:10:33.121Z,55.78
2018-12-29T01:10:58.683Z,55.68
2018-12-29T01:11:24.257Z,55.68
2018-12-29T01:11:49.831Z,55.78
2018-12-29T01:12:15.413Z,55.78
2018-12-29T01:12:40.970Z,55.88
2018-12-29T01:13:06.564Z,55.88
2018-12-29T01:13:32.141Z,55.59
2018-12-29T01:13:57.750Z,55.59
2018-12-29T01:14:23.277Z,55.68
2018-12-29T01:14:48.849Z,55.78
2018-12-29T01:15:14.439Z,55.78
2018-12-29T01:15:40.008Z,55.78
2018-12-29T01:16:05.583Z,55.78
2018-12-29T01:16:31.164Z,55.78
2018-12-29T01:16:56.739Z,55.78
2018-12-29T01:17:22.302Z,55.78
2018-12-29T01:17:47.893Z,55.78
2018-12-29T01:18:13.471Z,55.88
2018-12-29T01:18:39.053Z,55.78
2018-12-29T01:19:04.619Z,55.78
2018-12-29T01:19:30.191Z,55.78
2018-12-29T01:19:55.775Z,55.98
2018-12-29T01:20:21.363Z,55.68
2018-12-29T01:20:46.961Z,55.88
2018-12-29T01:21:12.543Z,55.78
2018-12-29T01:21:38.136Z,55.78
2018-12-29T01:22:03.713Z,55.66
2018-12-29T01:22:29.287Z,55.68
2018-12-29T01:22:54.875Z,55.78
2018-12-29T01:23:20.467Z,55.78
2018-12-29T01:23:46.048Z,55.78
2018-12-29T01:24:11.628Z,55.78
2018-12-29T01:24:37.203Z,55.78
2018-12-29T01:25:02.780Z,55.78
2018-12-29T01:25:28.368Z,55.78
2018-12-29T01:25:53.935Z,55.78
2018-12-29T01:26:19.508Z,55.88
2018-12-29T01:26:45.091Z,55.68
2018-12-29T01:27:10.653Z,55.78
2018-12-29T01:27:36.243Z,55.78
2018-12-29T01:28:01.827Z,55.68
2018-12-29T01:28:27.404Z,55.88
2018-12-29T01:28:52.980Z,55.78
2018-12-29T01:29:18.558Z,55.68
2018-12-29T01:29:44.143Z,55.78
2018-12-29T01:30:09.717Z,55.78
2018-12-29T01:30:35.299Z,55.78
2018-12-29T01:31:00.869Z,55.78
2018-12-29T01:31:26.447Z,55.78
2018-12-29T01:31:52.037Z,55.78
2018-12-29T01:32:17.633Z,55.78
2018-12-29T01:32:43.206Z,55.78
2018-12-29T01:33:08.790Z,55.78
2018-12-29T01:33:34.366Z,55.78
2018-12-29T01:33:59.944Z,55.88
2018-12-29T01:34:25.518Z,55.59
2018-12-29T01:34:51.888Z,55.98
2018-12-29T01:35:16.687Z,55.78
2018-12-29T01:35:42.258Z,55.78
2018-12-29T01:36:07.819Z,55.78
2018-12-29T01:36:33.399Z,55.68
2018-12-29T01:36:58.986Z,55.78
2018-12-29T01:37:24.571Z,55.78
2018-12-29T01:37:50.159Z,55.78
2018-12-29T01:38:15.733Z,55.78
2018-12-29T01:38:41.317Z,55.78
2018-12-29T01:39:06.900Z,55.78
2018-12-29T01:39:32.455Z,55.78
2018-12-29T01:39:58.045Z,55.78
2018-12-29T01:40:23.644Z,55.78
2018-12-29T01:40:49.215Z,55.59
2018-12-29T01:41:14.799Z,55.78
2018-12-29T01:41:40.393Z,55.78
2018-12-29T01:42:05.995Z,55.78
2018-12-29T01:42:31.570Z,55.78
2018-12-29T01:42:57.163Z,55.78
2018-12-29T01:43:22.755Z,55.78
2018-12-29T01:43:48.325Z,55.68
2018-12-29T01:44:13.905Z,55.78
2018-12-29T01:44:39.493Z,55.78
2018-12-29T01:45:05.078Z,55.59
2018-12-29T01:45:30.651Z,55.59
2018-12-29T01:45:56.232Z,55.68
2018-12-29T01:46:21.813Z,55.88
2018-12-29T01:46:47.392Z,55.59
2018-12-29T01:47:12.968Z,55.68
2018-12-29T01:47:38.557Z,55.59
2018-12-29T01:48:04.129Z,55.78
2018-12-29T01:48:29.696Z,55.78
2018-12-29T01:48:55.271Z,55.68
2018-12-29T01:49:20.847Z,55.59
2018-12-29T01:49:46.438Z,55.98
2018-12-29T01:50:12.014Z,55.59
2018-12-29T01:50:37.588Z,55.59
2018-12-29T01:51:03.167Z,55.68
2018-12-29T01:51:28.750Z,55.68
2018-12-29T01:51:54.311Z,55.68
2018-12-29T01:52:19.899Z,55.88
2018-12-29T01:52:45.477Z,55.78
2018-12-29T01:53:11.045Z,55.78
2018-12-29T01:53:36.619Z,55.88
2018-12-29T01:54:02.185Z,55.59
2018-12-29T01:54:27.767Z,55.78
2018-12-29T01:54:53.334Z,55.88
2018-12-29T01:55:18.914Z,55.98
2018-12-29T01:55:44.490Z,55.78
2018-12-29T01:56:10.067Z,55.98
2018-12-29T01:56:35.649Z,55.59
2018-12-29T01:57:01.220Z,55.78
2018-12-29T01:57:26.795Z,55.49
2018-12-29T01:57:52.374Z,55.78
2018-12-29T01:58:17.952Z,55.98
2018-12-29T01:58:43.522Z,55.78
2018-12-29T01:59:09.092Z,55.78
2018-12-29T01:59:34.655Z,55.59
2018-12-29T02:00:00.253Z,55.78
2018-12-29T02:00:25.827Z,55.68
2018-12-29T02:00:51.410Z,55.88
2018-12-29T02:01:16.996Z,55.78
2018-12-29T02:01:42.580Z,55.88
2018-12-29T02:02:08.155Z,55.59
2018-12-29T02:02:33.721Z,55.88
2018-12-29T02:02:59.302Z,55.78
2018-12-29T02:03:24.855Z,55.78
2018-12-29T02:03:50.449Z,55.59
2018-12-29T02:04:16.021Z,55.59
2018-12-29T02:04:41.605Z,55.78
2018-12-29T02:05:07.194Z,55.88
2018-12-29T02:05:32.758Z,55.88
2018-12-29T02:05:58.330Z,55.88
2018-12-29T02:06:23.897Z,55.59
2018-12-29T02:06:49.467Z,55.78
2018-12-29T02:07:15.045Z,55.59
2018-12-29T02:07:40.623Z,55.78
2018-12-29T02:08:06.211Z,55.78
2018-12-29T02:08:31.785Z,55.68
2018-12-29T02:08:57.363Z,55.78
2018-12-29T02:09:22.941Z,55.59
2018-12-29T02:09:48.515Z,55.59
2018-12-29T02:10:14.086Z,55.98
2018-12-29T02:10:39.674Z,55.88
2018-12-29T02:11:05.245Z,55.78
2018-12-29T02:11:30.832Z,55.88
2018-12-29T02:11:56.411Z,55.78
2018-12-29T02:12:21.987Z,55.88
2018-12-29T02:12:47.559Z,55.88
2018-12-29T02:13:13.131Z,55.88
2018-12-29T02:13:38.712Z,55.98
2018-12-29T02:14:04.291Z,55.88
2018-12-29T02:14:29.878Z,55.88
2018-12-29T02:14:55.453Z,55.78
2018-12-29T02:15:24.623Z,55.78
2018-12-29T02:15:46.607Z,55.59
2018-12-29T02:16:12.184Z,55.88
2018-12-29T02:16:37.760Z,55.88
2018-12-29T02:17:03.344Z,55.88
2018-12-29T02:17:28.919Z,55.88
2018-12-29T02:17:54.496Z,55.98
2018-12-29T02:18:20.077Z,55.78
2018-12-29T02:18:45.727Z,55.88
2018-12-29T02:19:11.293Z,55.78
2018-12-29T02:19:36.880Z,55.88
2018-12-29T02:20:02.449Z,55.98
2018-12-29T02:20:28.018Z,55.88
2018-12-29T02:20:53.575Z,55.78
2018-12-29T02:21:19.155Z,55.88
2018-12-29T02:21:44.728Z,55.68
2018-12-29T02:22:10.317Z,55.78
2018-12-29T02:22:35.848Z,55.78
2018-12-29T02:23:01.481Z,55.88
2018-12-29T02:23:27.059Z,55.78
2018-12-29T02:23:52.644Z,55.94
2018-12-29T02:24:18.212Z,55.98
2018-12-29T02:24:43.788Z,55.98
2018-12-29T02:25:09.373Z,55.78
2018-12-29T02:25:34.940Z,56.07
2018-12-29T02:26:00.503Z,55.98
2018-12-29T02:26:26.105Z,55.94
2018-12-29T02:26:51.687Z,55.78
2018-12-29T02:27:17.271Z,55.98
2018-12-29T02:27:42.858Z,56.07
2018-12-29T02:28:08.430Z,55.78
2018-12-29T02:28:34.007Z,55.88
2018-12-29T02:28:59.566Z,55.98
2018-12-29T02:29:25.149Z,55.98
2018-12-29T02:29:50.727Z,55.98
2018-12-29T02:30:16.293Z,55.94
2018-12-29T02:30:41.862Z,55.98
2018-12-29T02:31:07.450Z,55.98
2018-12-29T02:31:33.048Z,55.78
2018-12-29T02:31:58.581Z,56.07
2018-12-29T02:32:24.162Z,55.98
2018-12-29T02:32:49.740Z,55.78
2018-12-29T02:33:15.318Z,55.78
2018-12-29T02:33:40.891Z,55.88
2018-12-29T02:34:06.467Z,55.85
2018-12-29T02:34:32.041Z,55.98
2018-12-29T02:34:57.616Z,55.78
2018-12-29T02:35:23.192Z,55.78
2018-12-29T02:35:48.763Z,55.88
2018-12-29T02:36:14.335Z,55.88
2018-12-29T02:36:39.910Z,55.98
2018-12-29T02:37:05.470Z,55.98
2018-12-29T02:37:31.045Z,55.98
2018-12-29T02:37:56.603Z,55.78
2018-12-29T02:38:22.167Z,55.76
2018-12-29T02:38:47.749Z,56.07
2018-12-29T02:39:13.328Z,55.94
2018-12-29T02:39:38.910Z,55.78
2018-12-29T02:40:04.470Z,55.78
2018-12-29T02:40:30.046Z,55.78
2018-12-29T02:40:55.630Z,55.98
2018-12-29T02:41:21.198Z,55.98
2018-12-29T02:41:46.761Z,56.07
2018-12-29T02:42:12.353Z,55.98
2018-12-29T02:42:37.915Z,55.98
2018-12-29T02:43:03.531Z,55.98
2018-12-29T02:43:29.098Z,55.85
2018-12-29T02:43:54.685Z,55.98
2018-12-29T02:44:20.272Z,55.88
2018-12-29T02:44:45.855Z,55.98
2018-12-29T02:45:11.447Z,55.78
2018-12-29T02:45:37.027Z,55.78
2018-12-29T02:46:02.605Z,55.85
2018-12-29T02:46:28.189Z,55.98
2018-12-29T02:46:53.766Z,55.88
2018-12-29T02:47:19.354Z,55.88
2018-12-29T02:47:44.917Z,55.59
2018-12-29T02:48:10.487Z,55.88
2018-12-29T02:48:36.078Z,55.78
2018-12-29T02:49:01.647Z,55.78
2018-12-29T02:49:27.209Z,55.88
2018-12-29T02:49:52.778Z,55.49
2018-12-29T02:50:18.443Z,55.88
2018-12-29T02:50:43.963Z,55.88
2018-12-29T02:51:09.536Z,55.88
2018-12-29T02:51:35.114Z,55.78
2018-12-29T02:52:00.712Z,55.88
2018-12-29T02:52:26.283Z,55.78
2018-12-29T02:52:51.856Z,55.76
2018-12-29T02:53:17.420Z,55.85
2018-12-29T02:53:42.990Z,55.88
2018-12-29T02:54:08.571Z,55.98
2018-12-29T02:54:34.132Z,55.88
2018-12-29T02:54:59.709Z,55.98
2018-12-29T02:55:25.274Z,55.88
2018-12-29T02:55:50.859Z,55.4
2018-12-29T02:56:16.416Z,55.78
2018-12-29T02:56:42.013Z,55.88
2018-12-29T02:57:07.574Z,55.88
2018-12-29T02:57:33.149Z,55.98
2018-12-29T02:57:58.737Z,55.88
2018-12-29T02:58:24.311Z,55.88
2018-12-29T02:58:49.920Z,55.88
2018-12-29T02:59:15.500Z,55.98
2018-12-29T02:59:41.072Z,55.98
2018-12-29T03:00:06.646Z,55.88
2018-12-29T03:00:32.236Z,55.98
2018-12-29T03:00:57.811Z,55.94
2018-12-29T03:01:23.406Z,55.78
2018-12-29T03:01:48.962Z,55.88
2018-12-29T03:02:14.548Z,55.78
2018-12-29T03:02:40.119Z,55.88
2018-12-29T03:03:05.681Z,55.78
2018-12-29T03:03:31.259Z,55.98
2018-12-29T03:03:56.836Z,55.78
2018-12-29T03:04:22.408Z,55.94
2018-12-29T03:04:47.986Z,55.88
2018-12-29T03:05:13.561Z,55.88
2018-12-29T03:05:39.135Z,55.94
2018-12-29T03:06:04.743Z,55.88
2018-12-29T03:06:30.332Z,55.88
2018-12-29T03:06:55.928Z,55.88
2018-12-29T03:07:21.513Z,55.88
2018-12-29T03:07:47.087Z,55.88
2018-12-29T03:08:12.674Z,55.88
2018-12-29T03:08:38.246Z,55.98
2018-12-29T03:09:03.849Z,55.88
2018-12-29T03:09:29.427Z,55.88
2018-12-29T03:09:55.001Z,55.98
2018-12-29T03:10:20.571Z,55.98
2018-12-29T03:10:46.138Z,55.88
2018-12-29T03:11:11.731Z,55.94
2018-12-29T03:11:37.309Z,55.88
2018-12-29T03:12:02.886Z,55.94
2018-12-29T03:12:28.466Z,55.85
2018-12-29T03:12:54.039Z,55.88
2018-12-29T03:13:19.674Z,55.98
2018-12-29T03:13:45.244Z,55.56
2018-12-29T03:14:10.810Z,55.78
2018-12-29T03:14:36.377Z,55.59
2018-12-29T03:15:01.971Z,55.85
2018-12-29T03:15:27.538Z,55.88
2018-12-29T03:15:53.111Z,55.59
2018-12-29T03:16:18.677Z,55.4
2018-12-29T03:16:44.271Z,55.4
2018-12-29T03:17:09.826Z,55.27
2018-12-29T03:17:35.418Z,55.4
2018-12-29T03:18:01.003Z,55.59
2018-12-29T03:18:26.582Z,55.59
2018-12-29T03:18:52.163Z,55.78
2018-12-29T03:19:17.734Z,55.3
2018-12-29T03:19:43.300Z,55.49
2018-12-29T03:20:08.871Z,55.27
2018-12-29T03:20:34.498Z,55.4
2018-12-29T03:21:00.111Z,55.3
2018-12-29T03:21:25.667Z,55.4
2018-12-29T03:21:51.248Z,55.37
2018-12-29T03:22:16.837Z,55.59
2018-12-29T03:22:42.416Z,55.37
2018-12-29T03:23:08.002Z,55.4
2018-12-29T03:23:33.564Z,55.76
2018-12-29T03:23:59.154Z,55.78
2018-12-29T03:24:24.738Z,55.56
2018-12-29T03:24:50.319Z,55.4
2018-12-29T03:25:15.914Z,55.37
2018-12-29T03:25:41.501Z,55.4
2018-12-29T03:26:07.096Z,55.76
2018-12-29T03:26:32.667Z,55.98
2018-12-29T03:26:58.239Z,55.4
2018-12-29T03:27:23.817Z,55.76
2018-12-29T03:27:49.428Z,55.4
2018-12-29T03:28:14.998Z,55.49
2018-12-29T03:28:40.575Z,55.4
2018-12-29T03:29:06.159Z,55.4
2018-12-29T03:29:31.723Z,55.2
2018-12-29T03:29:57.279Z,55.2
2018-12-29T03:30:22.863Z,55.2
2018-12-29T03:30:48.437Z,55.2
2018-12-29T03:31:14.009Z,55.2
2018-12-29T03:31:39.593Z,55.27
2018-12-29T03:32:05.168Z,55.56
2018-12-29T03:32:30.757Z,55.37
2018-12-29T03:32:56.311Z,55.3
2018-12-29T03:33:21.892Z,55.2
2018-12-29T03:33:47.459Z,55.3
2018-12-29T03:34:13.048Z,55.3
2018-12-29T03:34:38.645Z,55.27
2018-12-29T03:35:04.206Z,55.4
2018-12-29T03:35:29.772Z,55.3
2018-12-29T03:35:55.346Z,55.27
2018-12-29T03:36:20.920Z,55.27
2018-12-29T03:36:46.484Z,55.27
2018-12-29T03:37:12.054Z,55.3
2018-12-29T03:37:37.602Z,55.3
2018-12-29T03:38:03.172Z,55.18
2018-12-29T03:38:28.766Z,55.27
2018-12-29T03:38:54.345Z,55.37
2018-12-29T03:39:19.944Z,55.27
2018-12-29T03:39:45.494Z,55.27
2018-12-29T03:40:11.066Z,55.37
2018-12-29T03:40:36.641Z,55.27
2018-12-29T03:41:02.227Z,55.46
2018-12-29T03:41:27.796Z,55.2
2018-12-29T03:41:53.378Z,55.27
2018-12-29T03:42:18.957Z,55.27
2018-12-29T03:42:44.518Z,55.27
2018-12-29T03:43:10.080Z,55.27
2018-12-29T03:43:35.648Z,55.4
2018-12-29T03:44:01.249Z,55.3
2018-12-29T03:44:26.833Z,55.27
2018-12-29T03:44:52.396Z,55.27
2018-12-29T03:45:17.962Z,55.27
2018-12-29T03:45:48.978Z,55.27
2018-12-29T03:46:09.132Z,55.27
2018-12-29T03:46:34.710Z,55.37
2018-12-29T03:47:00.298Z,55.27
2018-12-29T03:47:25.890Z,55.18
2018-12-29T03:47:51.450Z,55.27
2018-12-29T03:48:17.018Z,55.27
2018-12-29T03:48:42.590Z,55.4
2018-12-29T03:49:08.159Z,55.3
2018-12-29T03:49:33.746Z,55.27
2018-12-29T03:49:59.320Z,55.27
2018-12-29T03:50:24.891Z,55.18
2018-12-29T03:50:50.460Z,55.37
2018-12-29T03:51:16.038Z,55.27
2018-12-29T03:51:41.606Z,55.18
2018-12-29T03:52:07.180Z,55.27
2018-12-29T03:52:32.761Z,55.37
2018-12-29T03:52:58.336Z,55.27
2018-12-29T03:53:23.909Z,55.18
2018-12-29T03:53:49.532Z,55.27
2018-12-29T03:54:15.069Z,55.27
2018-12-29T03:54:40.636Z,55.27
2018-12-29T03:55:06.218Z,55.56
2018-12-29T03:55:31.778Z,55.18
2018-12-29T03:55:57.362Z,55.27
2018-12-29T03:56:22.942Z,55.27
2018-12-29T03:56:48.522Z,55.27
2018-12-29T03:57:14.096Z,55.27
2018-12-29T03:57:39.682Z,55.27
2018-12-29T03:58:05.250Z,55.37
2018-12-29T03:58:30.821Z,55.37
2018-12-29T03:58:56.389Z,55.27
2018-12-29T03:59:21.976Z,55.37
2018-12-29T03:59:47.574Z,55.18
2018-12-29T04:00:13.152Z,55.18
2018-12-29T04:00:38.708Z,55.27
2018-12-29T04:01:04.280Z,55.27
2018-12-29T04:01:29.851Z,55.27
2018-12-29T04:01:55.443Z,55.3
2018-12-29T04:02:21.012Z,55.18
2018-12-29T04:02:46.572Z,55.27
2018-12-29T04:03:12.157Z,55.08
2018-12-29T04:03:37.733Z,55.18
2018-12-29T04:04:03.308Z,55.56
2018-12-29T04:04:28.884Z,54.99
2018-12-29T04:04:54.450Z,55.37
2018-12-29T04:05:20.028Z,55.56
2018-12-29T04:05:45.603Z,55.37
2018-12-29T04:06:11.176Z,55.18
2018-12-29T04:06:36.763Z,55.18
2018-12-29T04:07:02.326Z,55.37
2018-12-29T04:07:27.899Z,55.18
2018-12-29T04:07:53.474Z,55.18
2018-12-29T04:08:19.076Z,55.18
2018-12-29T04:08:44.680Z,55.08
2018-12-29T04:09:10.270Z,55.27
2018-12-29T04:09:35.832Z,55.08
2018-12-29T04:10:01.433Z,55.56
2018-12-29T04:10:26.965Z,55.27
2018-12-29T04:10:52.554Z,55.08
2018-12-29T04:11:18.120Z,55.18
2018-12-29T04:11:43.697Z,55.08
2018-12-29T04:12:09.274Z,55.27
2018-12-29T04:12:34.857Z,55.27
2018-12-29T04:13:00.441Z,55.27
2018-12-29T04:13:26.031Z,55.18
2018-12-29T04:13:51.599Z,55.27
2018-12-29T04:14:17.170Z,55.27
2018-12-29T04:14:42.743Z,55.27
2018-12-29T04:15:08.307Z,55.27
2018-12-29T04:15:33.876Z,55.18
2018-12-29T04:15:59.461Z,55.18
2018-12-29T04:16:25.043Z,55.56
2018-12-29T04:16:50.601Z,55.08
2018-12-29T04:17:16.183Z,55.56
2018-12-29T04:17:41.761Z,55.46
2018-12-29T04:18:07.335Z,55.27
2018-12-29T04:18:32.919Z,55.56
2018-12-29T04:18:58.500Z,55.18
2018-12-29T04:19:24.074Z,55.08
2018-12-29T04:19:49.650Z,55.18
2018-12-29T04:20:15.214Z,55.18
2018-12-29T04:20:40.790Z,55.18
2018-12-29T04:21:06.366Z,55.18
2018-12-29T04:21:31.976Z,55.27
2018-12-29T04:21:57.561Z,55.27
2018-12-29T04:22:23.152Z,55.27
2018-12-29T04:22:48.726Z,55.27
2018-12-29T04:23:14.311Z,55.18
2018-12-29T04:23:39.880Z,55.27
2018-12-29T04:24:05.464Z,55.37
2018-12-29T04:24:31.042Z,55.27
2018-12-29T04:24:56.614Z,55.18
2018-12-29T04:25:22.195Z,55.27
2018-12-29T04:25:47.766Z,55.18
2018-12-29T04:26:13.348Z,55.18
2018-12-29T04:26:38.926Z,55.08
2018-12-29T04:27:04.494Z,55.27
2018-12-29T04:27:30.076Z,55.27
2018-12-29T04:27:55.666Z,55.08
2018-12-29T04:28:21.244Z,55.37
2018-12-29T04:28:46.810Z,55.08
2018-12-29T04:29:12.397Z,55.18
2018-12-29T04:29:37.978Z,55.27
2018-12-29T04:30:03.558Z,54.99
2018-12-29T04:30:29.133Z,55.08
2018-12-29T04:30:54.700Z,55.18
2018-12-29T04:31:20.275Z,55.56
2018-12-29T04:31:45.856Z,55.27
2018-12-29T04:32:11.444Z,55.56
2018-12-29T04:32:37.023Z,55.18
2018-12-29T04:33:02.599Z,55.18
2018-12-29T04:33:28.167Z,55.18
2018-12-29T04:33:53.728Z,55.08
2018-12-29T04:34:19.300Z,55.18
2018-12-29T04:34:44.874Z,55.56
2018-12-29T04:35:10.447Z,55.18
2018-12-29T04:35:36.023Z,55.08
2018-12-29T04:36:01.599Z,55.18
2018-12-29T04:36:27.174Z,55.18
2018-12-29T04:36:52.758Z,55.08
2018-12-29T04:37:18.336Z,55.08
2018-12-29T04:37:43.912Z,55.08
2018-12-29T04:38:09.478Z,55.18
2018-12-29T04:38:35.060Z,55.2
2018-12-29T04:39:00.642Z,55.27
2018-12-29T04:39:26.221Z,55.27
2018-12-29T04:39:51.784Z,55.18
2018-12-29T04:40:17.358Z,55.66
2018-12-29T04:40:42.934Z,55.59
2018-12-29T04:41:08.519Z,55.18
2018-12-29T04:41:34.094Z,55.18
2018-12-29T04:41:59.685Z,55.3
2018-12-29T04:42:25.252Z,55.4
2018-12-29T04:42:50.836Z,55.46
2018-12-29T04:43:16.398Z,55.4
2018-12-29T04:43:41.966Z,55.37
2018-12-29T04:44:07.548Z,55.4
2018-12-29T04:44:33.106Z,55.4
2018-12-29T04:44:58.672Z,55.3
2018-12-29T04:45:24.256Z,55.3
2018-12-29T04:45:49.854Z,55.3
2018-12-29T04:46:15.418Z,55.4
2018-12-29T04:46:41.007Z,55.3
2018-12-29T04:47:06.580Z,55.3
2018-12-29T04:47:32.157Z,55.4
2018-12-29T04:47:57.719Z,55.01
2018-12-29T04:48:23.326Z,55.46
2018-12-29T04:48:48.884Z,55.3
2018-12-29T04:49:14.492Z,55.49
2018-12-29T04:49:40.052Z,55.4
2018-12-29T04:50:05.626Z,55.01
2018-12-29T04:50:31.204Z,55.3
2018-12-29T04:50:56.784Z,55.4
2018-12-29T04:51:22.353Z,55.2
2018-12-29T04:51:47.926Z,55.2
2018-12-29T04:52:13.511Z,55.11
2018-12-29T04:52:39.088Z,55.2
2018-12-29T04:53:04.662Z,55.11
2018-12-29T04:53:30.234Z,55.3
2018-12-29T04:53:55.867Z,55.3
2018-12-29T04:54:21.374Z,55.4
2018-12-29T04:54:46.963Z,55.3
2018-12-29T04:55:12.524Z,55.3
2018-12-29T04:55:38.116Z,55.2
2018-12-29T04:56:03.686Z,55.2
2018-12-29T04:56:29.254Z,55.01
2018-12-29T04:56:54.830Z,55.2
2018-12-29T04:57:20.414Z,55.01
2018-12-29T04:57:45.986Z,54.82
2018-12-29T04:58:11.552Z,54.82
2018-12-29T04:58:37.128Z,55.2
2018-12-29T04:59:02.704Z,55.01
2018-12-29T04:59:28.292Z,55.01
2018-12-29T04:59:53.860Z,55.01
2018-12-29T05:00:19.430Z,55.01
2018-12-29T05:00:45.023Z,54.82
2018-12-29T05:01:10.599Z,54.82
2018-12-29T05:01:36.184Z,55.3
2018-12-29T05:02:01.756Z,55.11
2018-12-29T05:02:27.321Z,55.2
2018-12-29T05:02:52.892Z,54.91
2018-12-29T05:03:18.468Z,55.01
2018-12-29T05:03:44.032Z,55.01
2018-12-29T05:04:09.604Z,54.91
2018-12-29T05:04:35.165Z,54.82
2018-12-29T05:05:00.740Z,55.01
2018-12-29T05:05:26.316Z,55.01
2018-12-29T05:05:51.886Z,55.01
2018-12-29T05:06:17.472Z,55.01
2018-12-29T05:06:43.043Z,55.01
2018-12-29T05:07:08.624Z,55.2
2018-12-29T05:07:34.187Z,55.11
2018-12-29T05:07:59.776Z,55.11
2018-12-29T05:08:25.351Z,55.11
2018-12-29T05:08:50.922Z,54.82
2018-12-29T05:09:16.494Z,55.01
2018-12-29T05:09:42.069Z,54.82
2018-12-29T05:10:07.646Z,54.82
2018-12-29T05:10:33.219Z,54.82
2018-12-29T05:10:58.800Z,55.11
2018-12-29T05:11:24.366Z,55.01
2018-12-29T05:11:49.931Z,55.11
2018-12-29T05:12:15.516Z,54.99
2018-12-29T05:12:41.085Z,55.11
2018-12-29T05:13:06.656Z,55.01
2018-12-29T05:13:32.224Z,55.11
2018-12-29T05:13:57.786Z,55.11
2018-12-29T05:14:23.355Z,55.2
2018-12-29T05:14:48.934Z,55.2
2018-12-29T05:15:14.514Z,54.82
2018-12-29T05:15:40.090Z,54.82
2018-12-29T05:16:12.592Z,54.91
2018-12-29T05:16:31.242Z,54.82
2018-12-29T05:16:56.820Z,55.11
2018-12-29T05:17:22.414Z,55.2
2018-12-29T05:17:47.980Z,54.82
2018-12-29T05:18:13.550Z,55.01
2018-12-29T05:18:39.140Z,55.01
2018-12-29T05:19:04.717Z,55.11
2018-12-29T05:19:30.266Z,55.11
2018-12-29T05:19:55.842Z,55.3
2018-12-29T05:20:21.412Z,55.01
2018-12-29T05:20:46.982Z,54.82
2018-12-29T05:21:12.559Z,55.01
2018-12-29T05:21:38.130Z,55.01
2018-12-29T05:22:03.706Z,55.11
2018-12-29T05:22:29.336Z,55.4
2018-12-29T05:22:54.866Z,55.3
2018-12-29T05:23:20.444Z,55.3
2018-12-29T05:23:46.029Z,55.01
2018-12-29T05:24:11.599Z,55.3
2018-12-29T05:24:37.174Z,55.3
2018-12-29T05:25:02.745Z,55.2
2018-12-29T05:25:28.330Z,55.2
2018-12-29T05:25:53.908Z,55.2
2018-12-29T05:26:19.470Z,55.01
2018-12-29T05:26:45.056Z,55.2
2018-12-29T05:27:10.636Z,55.2
2018-12-29T05:27:36.211Z,55.3
2018-12-29T05:28:01.785Z,55.49
2018-12-29T05:28:27.357Z,55.01
2018-12-29T05:28:52.924Z,55.2
2018-12-29T05:29:18.498Z,55.2
2018-12-29T05:29:44.086Z,55.2
2018-12-29T05:30:09.662Z,55.2
2018-12-29T05:30:35.243Z,55.01